Terminal Aerodrome Forecast
Issued by NWS Wilmington, OH

Current Version | Previous Version | Graphics & Text | Print | Product List | Glossary On
Versions: 1 2 3 4 5 6 7 8 9 10 11 12 13 14 15 16 17 18 19 20 21 22 23
367
FTUS41 KILN 162056 AAA
TAFCVG
TAF AMD
KCVG 162056Z 1621/1724 26010KT P6SM BKN025
     FM170000 27006KT P6SM OVC025
     FM170300 26004KT P6SM OVC015
     FM171600 27008KT P6SM BKN025
     FM171900 27008KT P6SM SCT025=

USA.gov is the U.S. government's official web portal to all federal, state and local government web resources and services.